sensor_id;sensor_type;location;lat;lon;timestamp;pressure;altitude;pressure_sealevel;temperature
24586;BMP280;12743;52.262;6.172;2023-02-28T00:02:20;101750.69;;;0.71
24586;BMP280;12743;52.262;6.172;2023-02-28T00:04:47;101762.63;;;0.72
24586;BMP280;12743;52.262;6.172;2023-02-28T00:07:19;101839.06;;;1.26
24586;BMP280;12743;52.262;6.172;2023-02-28T00:09:46;101650.63;;;0.08
24586;BMP280;12743;52.262;6.172;2023-02-28T00:12:12;101721.94;;;0.67
24586;BMP280;12743;52.262;6.172;2023-02-28T00:14:39;101896.78;;;1.66
24586;BMP280;12743;52.262;6.172;2023-02-28T00:17:06;101748.88;;;0.94
24586;BMP280;12743;52.262;6.172;2023-02-28T00:19:33;101737.50;;;1.07
24586;BMP280;12743;52.262;6.172;2023-02-28T00:21:59;101740.44;;;0.99
24586;BMP280;12743;52.262;6.172;2023-02-28T00:24:28;101834.56;;;1.61
24586;BMP280;12743;52.262;6.172;2023-02-28T00:26:55;101701.25;;;0.79
24586;BMP280;12743;52.262;6.172;2023-02-28T00:29:24;101846.94;;;1.59
24586;BMP280;12743;52.262;6.172;2023-02-28T00:31:51;101730.09;;;0.99
24586;BMP280;12743;52.262;6.172;2023-02-28T00:34:18;101685.53;;;0.69
24586;BMP280;12743;52.262;6.172;2023-02-28T00:36:45;101754.06;;;1.06
24586;BMP280;12743;52.262;6.172;2023-02-28T00:39:15;101703.00;;;0.90
24586;BMP280;12743;52.262;6.172;2023-02-28T00:41:42;101712.47;;;0.96
24586;BMP280;12743;52.262;6.172;2023-02-28T00:44:09;101793.94;;;1.50
24586;BMP280;12743;52.262;6.172;2023-02-28T00:46:36;101731.53;;;1.06
24586;BMP280;12743;52.262;6.172;2023-02-28T00:49:03;101753.66;;;1.26
24586;BMP280;12743;52.262;6.172;2023-02-28T00:51:29;101605.84;;;0.26
24586;BMP280;12743;52.262;6.172;2023-02-28T00:53:56;101856.22;;;2.00
24586;BMP280;12743;52.262;6.172;2023-02-28T00:56:23;101759.50;;;1.21
24586;BMP280;12743;52.262;6.172;2023-02-28T00:58:50;101594.59;;;0.20
24586;BMP280;12743;52.262;6.172;2023-02-28T01:01:18;101821.69;;;1.66
24586;BMP280;12743;52.262;6.172;2023-02-28T01:03:45;101809.22;;;1.63
24586;BMP280;12743;52.262;6.172;2023-02-28T01:06:13;101858.03;;;1.99
24586;BMP280;12743;52.262;6.172;2023-02-28T01:08:39;101784.28;;;1.45
24586;BMP280;12743;52.262;6.172;2023-02-28T01:11:10;101728.94;;;1.06
24586;BMP280;12743;52.262;6.172;2023-02-28T01:13:39;101845.06;;;1.83
24586;BMP280;12743;52.262;6.172;2023-02-28T01:16:06;101672.69;;;0.74
24586;BMP280;12743;52.262;6.172;2023-02-28T01:18:34;101830.50;;;1.65
24586;BMP280;12743;52.262;6.172;2023-02-28T01:21:09;101643.25;;;0.63
24586;BMP280;12743;52.262;6.172;2023-02-28T01:23:36;101815.28;;;1.69
24586;BMP280;12743;52.262;6.172;2023-02-28T01:26:08;101806.16;;;1.66
24586;BMP280;12743;52.262;6.172;2023-02-28T01:28:38;101738.47;;;1.29
24586;BMP280;12743;52.262;6.172;2023-02-28T01:31:06;101808.13;;;1.76
24586;BMP280;12743;52.262;6.172;2023-02-28T01:33:33;101715.00;;;1.08
24586;BMP280;12743;52.262;6.172;2023-02-28T01:36:07;101744.91;;;1.43
24586;BMP280;12743;52.262;6.172;2023-02-28T01:38:36;101743.66;;;1.29
24586;BMP280;12743;52.262;6.172;2023-02-28T01:41:03;101793.16;;;1.49
24586;BMP280;12743;52.262;6.172;2023-02-28T01:43:32;101727.81;;;1.14
24586;BMP280;12743;52.262;6.172;2023-02-28T01:46:18;101839.72;;;1.89
24586;BMP280;12743;52.262;6.172;2023-02-28T01:48:54;101875.16;;;2.00
24586;BMP280;12743;52.262;6.172;2023-02-28T01:54:00;101750.28;;;1.25
24586;BMP280;12743;52.262;6.172;2023-02-28T01:56:32;101635.00;;;0.49
24586;BMP280;12743;52.262;6.172;2023-02-28T01:58:59;101604.91;;;0.32
24586;BMP280;12743;52.262;6.172;2023-02-28T02:01:27;101847.19;;;2.02
24586;BMP280;12743;52.262;6.172;2023-02-28T02:03:59;101847.44;;;2.01
24586;BMP280;12743;52.262;6.172;2023-02-28T02:06:36;101835.53;;;1.72
24586;BMP280;12743;52.262;6.172;2023-02-28T02:09:06;101619.69;;;0.48
24586;BMP280;12743;52.262;6.172;2023-02-28T02:11:33;101831.25;;;1.77
24586;BMP280;12743;52.262;6.172;2023-02-28T02:22:35;101852.25;;;2.09
24586;BMP280;12743;52.262;6.172;2023-02-28T02:33:31;101583.91;;;0.28
24586;BMP280;12743;52.262;6.172;2023-02-28T02:36:13;101764.34;;;1.46
24586;BMP280;12743;52.262;6.172;2023-02-28T02:41:30;101763.31;;;1.30
24586;BMP280;12743;52.262;6.172;2023-02-28T02:44:27;101684.44;;;0.93
24586;BMP280;12743;52.262;6.172;2023-02-28T02:47:08;101836.41;;;1.77
24586;BMP280;12743;52.262;6.172;2023-02-28T02:49:38;101815.78;;;1.54
24586;BMP280;12743;52.262;6.172;2023-02-28T02:52:09;101626.34;;;0.32
24586;BMP280;12743;52.262;6.172;2023-02-28T02:54:41;101859.66;;;1.89
24586;BMP280;12743;52.262;6.172;2023-02-28T02:57:21;101817.88;;;1.69
24586;BMP280;12743;52.262;6.172;2023-02-28T02:59:49;101830.38;;;1.72
24586;BMP280;12743;52.262;6.172;2023-02-28T03:02:19;101808.69;;;1.49
24586;BMP280;12743;52.262;6.172;2023-02-28T03:04:52;101868.84;;;1.96
24586;BMP280;12743;52.262;6.172;2023-02-28T03:07:20;101868.66;;;1.86
24586;BMP280;12743;52.262;6.172;2023-02-28T03:09:55;101746.34;;;1.23
24586;BMP280;12743;52.262;6.172;2023-02-28T03:12:41;101744.25;;;1.08
24586;BMP280;12743;52.262;6.172;2023-02-28T03:15:20;101893.63;;;2.04
24586;BMP280;12743;52.262;6.172;2023-02-28T03:18:06;101844.84;;;1.84
24586;BMP280;12743;52.262;6.172;2023-02-28T03:20:48;101858.53;;;1.68
24586;BMP280;12743;52.262;6.172;2023-02-28T03:23:23;101685.53;;;0.69
24586;BMP280;12743;52.262;6.172;2023-02-28T03:26:04;101714.50;;;0.82
24586;BMP280;12743;52.262;6.172;2023-02-28T03:31:29;101816.31;;;1.28
24586;BMP280;12743;52.262;6.172;2023-02-28T03:34:04;101678.50;;;0.29
24586;BMP280;12743;52.262;6.172;2023-02-28T03:36:41;101875.75;;;1.63
24586;BMP280;12743;52.262;6.172;2023-02-28T03:39:22;101824.13;;;1.44
24586;BMP280;12743;52.262;6.172;2023-02-28T03:42:18;101839.75;;;1.49
24586;BMP280;12743;52.262;6.172;2023-02-28T03:44:50;101854.25;;;1.62
24586;BMP280;12743;52.262;6.172;2023-02-28T03:47:25;101925.44;;;1.88
24586;BMP280;12743;52.262;6.172;2023-02-28T03:49:57;101705.53;;;0.62
24586;BMP280;12743;52.262;6.172;2023-02-28T03:52:30;101771.69;;;0.97
24586;BMP280;12743;52.262;6.172;2023-02-28T03:55:02;101750.03;;;0.52
24586;BMP280;12743;52.262;6.172;2023-02-28T03:57:43;101931.16;;;1.90
24586;BMP280;12743;52.262;6.172;2023-02-28T04:00:20;101842.09;;;1.11
24586;BMP280;12743;52.262;6.172;2023-02-28T04:02:47;101770.84;;;0.69
24586;BMP280;12743;52.262;6.172;2023-02-28T04:05:20;101823.88;;;1.18
24586;BMP280;12743;52.262;6.172;2023-02-28T04:07:47;101835.00;;;1.18
24586;BMP280;12743;52.262;6.172;2023-02-28T04:10:16;101821.19;;;1.13
24586;BMP280;12743;52.262;6.172;2023-02-28T04:12:43;101790.16;;;0.89
24586;BMP280;12743;52.262;6.172;2023-02-28T04:15:10;101746.22;;;0.54
24586;BMP280;12743;52.262;6.172;2023-02-28T04:17:37;101719.47;;;0.49
24586;BMP280;12743;52.262;6.172;2023-02-28T04:20:05;101910.09;;;1.58
24586;BMP280;12743;52.262;6.172;2023-02-28T04:22:36;101787.56;;;0.78
24586;BMP280;12743;52.262;6.172;2023-02-28T04:25:04;101947.34;;;1.69
24586;BMP280;12743;52.262;6.172;2023-02-28T04:27:32;101719.38;;;0.21
24586;BMP280;12743;52.262;6.172;2023-02-28T04:29:59;101715.00;;;0.33
24586;BMP280;12743;52.262;6.172;2023-02-28T04:32:25;101843.22;;;1.03
24586;BMP280;12743;52.262;6.172;2023-02-28T04:34:52;101946.44;;;1.63
24586;BMP280;12743;52.262;6.172;2023-02-28T04:37:19;101792.31;;;0.92
24586;BMP280;12743;52.262;6.172;2023-02-28T04:39:46;101864.53;;;1.34
24586;BMP280;12743;52.262;6.172;2023-02-28T04:42:13;101835.13;;;1.00
24586;BMP280;12743;52.262;6.172;2023-02-28T04:44:40;101934.78;;;1.89
24586;BMP280;12743;52.262;6.172;2023-02-28T04:47:07;101881.84;;;1.56
24586;BMP280;12743;52.262;6.172;2023-02-28T04:49:34;101797.34;;;0.99
24586;BMP280;12743;52.262;6.172;2023-02-28T04:52:02;101705.53;;;0.38
24586;BMP280;12743;52.262;6.172;2023-02-28T04:54:31;101965.31;;;1.87
24586;BMP280;12743;52.262;6.172;2023-02-28T04:57:04;101817.38;;;0.92
24586;BMP280;12743;52.262;6.172;2023-02-28T04:59:31;101698.78;;;0.37
24586;BMP280;12743;52.262;6.172;2023-02-28T05:01:58;101885.00;;;1.58
24586;BMP280;12743;52.262;6.172;2023-02-28T05:04:24;101803.53;;;0.98
24586;BMP280;12743;52.262;6.172;2023-02-28T05:06:51;101889.50;;;1.51
24586;BMP280;12743;52.262;6.172;2023-02-28T05:09:18;101854.66;;;1.42
24586;BMP280;12743;52.262;6.172;2023-02-28T05:11:45;101803.75;;;0.96
24586;BMP280;12743;52.262;6.172;2023-02-28T05:14:13;101762.16;;;0.86
24586;BMP280;12743;52.262;6.172;2023-02-28T05:16:40;101885.53;;;1.72
24586;BMP280;12743;52.262;6.172;2023-02-28T05:19:07;101813.19;;;1.26
24586;BMP280;12743;52.262;6.172;2023-02-28T05:21:36;101762.72;;;0.88
24586;BMP280;12743;52.262;6.172;2023-02-28T05:24:13;101794.09;;;0.92
24586;BMP280;12743;52.262;6.172;2023-02-28T05:26:42;101905.59;;;1.53
24586;BMP280;12743;52.262;6.172;2023-02-28T05:29:09;101912.34;;;1.54
24586;BMP280;12743;52.262;6.172;2023-02-28T05:31:38;101840.28;;;1.23
24586;BMP280;12743;52.262;6.172;2023-02-28T05:34:04;101746.09;;;0.73
24586;BMP280;12743;52.262;6.172;2023-02-28T05:36:32;101818.44;;;1.31
24586;BMP280;12743;52.262;6.172;2023-02-28T05:38:59;101844.66;;;1.23
24586;BMP280;12743;52.262;6.172;2023-02-28T05:41:26;101857.28;;;1.19
24586;BMP280;12743;52.262;6.172;2023-02-28T05:43:53;101927.06;;;1.77
24586;BMP280;12743;52.262;6.172;2023-02-28T05:46:20;101872.06;;;1.47
24586;BMP280;12743;52.262;6.172;2023-02-28T05:48:47;101958.69;;;1.79
24586;BMP280;12743;52.262;6.172;2023-02-28T05:51:15;101890.31;;;1.40
24586;BMP280;12743;52.262;6.172;2023-02-28T05:53:41;101902.66;;;1.62
24586;BMP280;12743;52.262;6.172;2023-02-28T05:56:08;101827.03;;;1.08
24586;BMP280;12743;52.262;6.172;2023-02-28T05:58:35;101956.53;;;1.88
24586;BMP280;12743;52.262;6.172;2023-02-28T06:01:20;101952.34;;;1.87
24586;BMP280;12743;52.262;6.172;2023-02-28T06:03:47;101927.31;;;1.52
24586;BMP280;12743;52.262;6.172;2023-02-28T06:06:13;101954.22;;;1.63
24586;BMP280;12743;52.262;6.172;2023-02-28T06:08:40;101912.44;;;1.59
24586;BMP280;12743;52.262;6.172;2023-02-28T06:11:09;101920.78;;;1.50
24586;BMP280;12743;52.262;6.172;2023-02-28T06:13:36;101913.53;;;1.12
24586;BMP280;12743;52.262;6.172;2023-02-28T06:16:03;101842.66;;;0.78
24586;BMP280;12743;52.262;6.172;2023-02-28T06:18:29;101840.50;;;0.87
24586;BMP280;12743;52.262;6.172;2023-02-28T06:20:56;101702.75;;;0.17
24586;BMP280;12743;52.262;6.172;2023-02-28T06:23:26;101852.88;;;0.96
24586;BMP280;12743;52.262;6.172;2023-02-28T06:25:52;101844.34;;;0.73
24586;BMP280;12743;52.262;6.172;2023-02-28T06:28:19;101858.50;;;0.70
24586;BMP280;12743;52.262;6.172;2023-02-28T06:30:46;101797.00;;;0.49
24586;BMP280;12743;52.262;6.172;2023-02-28T06:33:13;101913.63;;;1.17
24586;BMP280;12743;52.262;6.172;2023-02-28T06:35:40;101935.22;;;1.34
24586;BMP280;12743;52.262;6.172;2023-02-28T06:38:09;102017.81;;;1.71
24586;BMP280;12743;52.262;6.172;2023-02-28T06:40:37;101945.00;;;1.44
24586;BMP280;12743;52.262;6.172;2023-02-28T06:43:03;101979.53;;;1.73
24586;BMP280;12743;52.262;6.172;2023-02-28T06:45:30;101770.59;;;0.35
24586;BMP280;12743;52.262;6.172;2023-02-28T06:47:57;101794.41;;;0.61
24586;BMP280;12743;52.262;6.172;2023-02-28T06:50:24;101921.59;;;1.39
24586;BMP280;12743;52.262;6.172;2023-02-28T06:52:51;101908.22;;;1.30
24586;BMP280;12743;52.262;6.172;2023-02-28T06:55:20;101870.34;;;1.01
24586;BMP280;12743;52.262;6.172;2023-02-28T06:57:47;101914.50;;;0.88
24586;BMP280;12743;52.262;6.172;2023-02-28T07:00:14;101877.53;;;0.76
24586;BMP280;12743;52.262;6.172;2023-02-28T07:02:41;102044.91;;;2.03
24586;BMP280;12743;52.262;6.172;2023-02-28T07:05:08;102000.09;;;1.91
24586;BMP280;12743;52.262;6.172;2023-02-28T07:07:35;101996.44;;;1.75
24586;BMP280;12743;52.262;6.172;2023-02-28T07:10:04;101892.50;;;1.09
24586;BMP280;12743;52.262;6.172;2023-02-28T07:12:34;102008.81;;;1.85
24586;BMP280;12743;52.262;6.172;2023-02-28T07:15:00;101815.69;;;0.63
24586;BMP280;12743;52.262;6.172;2023-02-28T07:17:27;101787.00;;;0.29
24586;BMP280;12743;52.262;6.172;2023-02-28T07:19:54;102046.06;;;1.95
24586;BMP280;12743;52.262;6.172;2023-02-28T07:22:20;101972.91;;;1.65
24586;BMP280;12743;52.262;6.172;2023-02-28T07:24:47;102031.53;;;1.94
24586;BMP280;12743;52.262;6.172;2023-02-28T07:27:17;102025.88;;;1.86
24586;BMP280;12743;52.262;6.172;2023-02-28T07:29:55;101836.78;;;0.48
24586;BMP280;12743;52.262;6.172;2023-02-28T07:32:22;101836.69;;;0.54
24586;BMP280;12743;52.262;6.172;2023-02-28T07:34:49;101976.97;;;1.38
24586;BMP280;12743;52.262;6.172;2023-02-28T07:37:16;102080.41;;;2.14
24586;BMP280;12743;52.262;6.172;2023-02-28T07:39:44;102009.28;;;1.35
24586;BMP280;12743;52.262;6.172;2023-02-28T07:42:10;102082.88;;;1.86
24586;BMP280;12743;52.262;6.172;2023-02-28T07:44:39;102034.13;;;1.36
24586;BMP280;12743;52.262;6.172;2023-02-28T07:47:08;102087.28;;;1.50
24586;BMP280;12743;52.262;6.172;2023-02-28T07:49:38;102163.78;;;2.11
24586;BMP280;12743;52.262;6.172;2023-02-28T07:52:06;102205.81;;;2.13
24586;BMP280;12743;52.262;6.172;2023-02-28T07:54:33;102227.13;;;2.38
24586;BMP280;12743;52.262;6.172;2023-02-28T07:57:00;102233.63;;;2.29
24586;BMP280;12743;52.262;6.172;2023-02-28T07:59:27;102217.06;;;2.07
24586;BMP280;12743;52.262;6.172;2023-02-28T08:02:03;102275.47;;;2.44
24586;BMP280;12743;52.262;6.172;2023-02-28T08:04:33;102286.41;;;2.46
24586;BMP280;12743;52.262;6.172;2023-02-28T08:07:00;102246.13;;;1.97
24586;BMP280;12743;52.262;6.172;2023-02-28T08:09:27;102355.16;;;2.37
24586;BMP280;12743;52.262;6.172;2023-02-28T08:11:53;102299.00;;;2.08
24586;BMP280;12743;52.262;6.172;2023-02-28T08:14:20;102296.19;;;1.68
24586;BMP280;12743;52.262;6.172;2023-02-28T08:16:47;102388.91;;;2.07
24586;BMP280;12743;52.262;6.172;2023-02-28T08:19:14;102219.31;;;1.21
24586;BMP280;12743;52.262;6.172;2023-02-28T08:21:40;102346.44;;;2.08
24586;BMP280;12743;52.262;6.172;2023-02-28T08:24:07;102338.97;;;2.00
24586;BMP280;12743;52.262;6.172;2023-02-28T08:26:34;102337.31;;;2.29
24586;BMP280;12743;52.262;6.172;2023-02-28T08:29:01;102445.94;;;3.13
24586;BMP280;12743;52.262;6.172;2023-02-28T08:31:32;102355.69;;;2.16
24586;BMP280;12743;52.262;6.172;2023-02-28T08:33:59;102505.41;;;3.03
24586;BMP280;12743;52.262;6.172;2023-02-28T08:36:26;102487.34;;;3.08
24586;BMP280;12743;52.262;6.172;2023-02-28T08:38:56;102590.00;;;3.34
24586;BMP280;12743;52.262;6.172;2023-02-28T08:41:23;102613.81;;;3.31
24586;BMP280;12743;52.262;6.172;2023-02-28T08:43:49;102586.72;;;2.86
24586;BMP280;12743;52.262;6.172;2023-02-28T08:46:16;102571.66;;;2.64
24586;BMP280;12743;52.262;6.172;2023-02-28T08:48:43;102589.47;;;3.02
24586;BMP280;12743;52.262;6.172;2023-02-28T08:51:13;102633.91;;;3.24
24586;BMP280;12743;52.262;6.172;2023-02-28T08:53:42;102626.50;;;2.98
24586;BMP280;12743;52.262;6.172;2023-02-28T08:56:11;102550.41;;;2.56
24586;BMP280;12743;52.262;6.172;2023-02-28T08:58:39;102551.09;;;2.63
24586;BMP280;12743;52.262;6.172;2023-02-28T09:01:12;102725.91;;;3.58
24586;BMP280;12743;52.262;6.172;2023-02-28T09:03:40;102566.84;;;2.80
24586;BMP280;12743;52.262;6.172;2023-02-28T09:06:09;102615.59;;;3.19
24586;BMP280;12743;52.262;6.172;2023-02-28T09:08:36;102686.72;;;3.59
24586;BMP280;12743;52.262;6.172;2023-02-28T09:11:06;102521.69;;;2.39
24586;BMP280;12743;52.262;6.172;2023-02-28T09:13:38;102637.22;;;3.01
24586;BMP280;12743;52.262;6.172;2023-02-28T09:16:11;102524.19;;;2.46
24586;BMP280;12743;52.262;6.172;2023-02-28T09:18:42;102548.56;;;2.75
24586;BMP280;12743;52.262;6.172;2023-02-28T09:21:14;102532.81;;;2.88
24586;BMP280;12743;52.262;6.172;2023-02-28T09:23:46;102470.97;;;2.43
24586;BMP280;12743;52.262;6.172;2023-02-28T09:26:19;102647.38;;;3.56
24586;BMP280;12743;52.262;6.172;2023-02-28T09:28:46;102585.69;;;3.28
24586;BMP280;12743;52.262;6.172;2023-02-28T09:31:15;102680.88;;;3.87
24586;BMP280;12743;52.262;6.172;2023-02-28T09:33:43;102630.59;;;3.70
24586;BMP280;12743;52.262;6.172;2023-02-28T09:36:09;102727.34;;;4.30
24586;BMP280;12743;52.262;6.172;2023-02-28T09:38:36;102748.56;;;4.38
24586;BMP280;12743;52.262;6.172;2023-02-28T09:41:11;102706.72;;;4.52
24586;BMP280;12743;52.262;6.172;2023-02-28T09:43:42;102726.03;;;4.44
24586;BMP280;12743;52.262;6.172;2023-02-28T09:46:38;102755.78;;;4.71
24586;BMP280;12743;52.262;6.172;2023-02-28T09:49:13;102621.88;;;3.88
24586;BMP280;12743;52.262;6.172;2023-02-28T09:51:51;102758.94;;;4.73
24586;BMP280;12743;52.262;6.172;2023-02-28T09:54:23;102631.00;;;4.13
24586;BMP280;12743;52.262;6.172;2023-02-28T09:56:58;102649.34;;;4.07
24586;BMP280;12743;52.262;6.172;2023-02-28T09:59:31;102751.94;;;4.90
24586;BMP280;12743;52.262;6.172;2023-02-28T10:04:59;102650.66;;;4.61
24586;BMP280;12743;52.262;6.172;2023-02-28T10:09:59;102649.69;;;4.38
24586;BMP280;12743;52.262;6.172;2023-02-28T10:12:29;102637.59;;;4.44
24586;BMP280;12743;52.262;6.172;2023-02-28T10:14:58;102599.94;;;4.07
24586;BMP280;12743;52.262;6.172;2023-02-28T10:17:32;102607.47;;;4.08
24586;BMP280;12743;52.262;6.172;2023-02-28T10:20:22;102493.09;;;3.57
24586;BMP280;12743;52.262;6.172;2023-02-28T10:23:17;102748.94;;;5.22
24586;BMP280;12743;52.262;6.172;2023-02-28T10:25:53;102703.88;;;5.10
24586;BMP280;12743;52.262;6.172;2023-02-28T10:28:21;102605.47;;;4.38
24586;BMP280;12743;52.262;6.172;2023-02-28T10:30:51;102608.47;;;4.30
24586;BMP280;12743;52.262;6.172;2023-02-28T10:33:37;102683.41;;;4.85
24586;BMP280;12743;52.262;6.172;2023-02-28T10:36:04;102655.13;;;4.49
24586;BMP280;12743;52.262;6.172;2023-02-28T10:38:36;102679.78;;;4.74
24586;BMP280;12743;52.262;6.172;2023-02-28T10:41:15;102737.06;;;5.31
24586;BMP280;12743;52.262;6.172;2023-02-28T10:43:43;102735.91;;;5.22
24586;BMP280;12743;52.262;6.172;2023-02-28T10:46:16;102646.16;;;4.56
24586;BMP280;12743;52.262;6.172;2023-02-28T10:49:05;102544.97;;;4.03
24586;BMP280;12743;52.262;6.172;2023-02-28T10:51:38;102634.91;;;4.67
24586;BMP280;12743;52.262;6.172;2023-02-28T10:54:15;102577.00;;;4.32
24586;BMP280;12743;52.262;6.172;2023-02-28T10:56:42;102603.03;;;4.32
24586;BMP280;12743;52.262;6.172;2023-02-28T11:01:45;102477.31;;;3.12
24586;BMP280;12743;52.262;6.172;2023-02-28T11:06:58;102633.34;;;4.26
24586;BMP280;12743;52.262;6.172;2023-02-28T11:11:58;102694.25;;;4.54
24586;BMP280;12743;52.262;6.172;2023-02-28T11:14:28;102586.69;;;3.97
24586;BMP280;12743;52.262;6.172;2023-02-28T11:17:00;102575.09;;;3.88
24586;BMP280;12743;52.262;6.172;2023-02-28T11:19:37;102466.91;;;3.12
24586;BMP280;12743;52.262;6.172;2023-02-28T11:22:08;102619.69;;;4.08
24586;BMP280;12743;52.262;6.172;2023-02-28T11:24:43;102529.13;;;3.65
24586;BMP280;12743;52.262;6.172;2023-02-28T11:29:58;102702.03;;;4.65
24586;BMP280;12743;52.262;6.172;2023-02-28T11:32:27;102480.34;;;3.32
24586;BMP280;12743;52.262;6.172;2023-02-28T11:37:38;102589.47;;;4.18
24586;BMP280;12743;52.262;6.172;2023-02-28T11:40:14;102542.41;;;3.92
24586;BMP280;12743;52.262;6.172;2023-02-28T11:42:50;102694.63;;;4.74
24586;BMP280;12743;52.262;6.172;2023-02-28T11:45:46;102684.19;;;4.74
24586;BMP280;12743;52.262;6.172;2023-02-28T11:48:30;102388.69;;;3.08
24586;BMP280;12743;52.262;6.172;2023-02-28T11:56:39;102673.03;;;4.73
24586;BMP280;12743;52.262;6.172;2023-02-28T12:02:24;102604.78;;;4.43
24586;BMP280;12743;52.262;6.172;2023-02-28T12:13:46;102624.47;;;4.39
24586;BMP280;12743;52.262;6.172;2023-02-28T12:26:47;102418.97;;;3.66
24586;BMP280;12743;52.262;6.172;2023-02-28T12:29:19;102440.16;;;3.74
24586;BMP280;12743;52.262;6.172;2023-02-28T12:34:31;102429.31;;;3.77
24586;BMP280;12743;52.262;6.172;2023-02-28T12:37:06;102439.94;;;3.76
24586;BMP280;12743;52.262;6.172;2023-02-28T12:39:41;102651.63;;;4.99
24586;BMP280;12743;52.262;6.172;2023-02-28T12:42:25;102608.28;;;4.77
24586;BMP280;12743;52.262;6.172;2023-02-28T12:45:17;102621.94;;;4.84
24586;BMP280;12743;52.262;6.172;2023-02-28T12:47:48;102639.50;;;5.05
24586;BMP280;12743;52.262;6.172;2023-02-28T12:50:17;102508.63;;;4.20
24586;BMP280;12743;52.262;6.172;2023-02-28T12:53:06;102456.38;;;3.93
24586;BMP280;12743;52.262;6.172;2023-02-28T12:55:49;102644.53;;;5.28
24586;BMP280;12743;52.262;6.172;2023-02-28T12:58:30;102622.28;;;5.04
24586;BMP280;12743;52.262;6.172;2023-02-28T13:01:36;102616.91;;;5.11
24586;BMP280;12743;52.262;6.172;2023-02-28T13:09:59;102613.59;;;5.48
24586;BMP280;12743;52.262;6.172;2023-02-28T13:12:27;102613.28;;;5.28
24586;BMP280;12743;52.262;6.172;2023-02-28T13:15:27;102621.06;;;5.23
24586;BMP280;12743;52.262;6.172;2023-02-28T13:17:58;102392.84;;;4.01
24586;BMP280;12743;52.262;6.172;2023-02-28T13:20:36;102432.44;;;4.36
24586;BMP280;12743;52.262;6.172;2023-02-28T13:26:08;102543.94;;;4.89
24586;BMP280;12743;52.262;6.172;2023-02-28T13:31:17;102529.25;;;4.99
24586;BMP280;12743;52.262;6.172;2023-02-28T13:38:56;102464.53;;;4.58
24586;BMP280;12743;52.262;6.172;2023-02-28T13:44:20;102605.66;;;5.60
24586;BMP280;12743;52.262;6.172;2023-02-28T13:54:29;102465.38;;;4.97
24586;BMP280;12743;52.262;6.172;2023-02-28T13:57:15;102557.72;;;5.61
24586;BMP280;12743;52.262;6.172;2023-02-28T14:05:36;102399.16;;;4.55
24586;BMP280;12743;52.262;6.172;2023-02-28T14:08:17;102597.13;;;5.65
24586;BMP280;12743;52.262;6.172;2023-02-28T14:11:03;102540.41;;;5.55
24586;BMP280;12743;52.262;6.172;2023-02-28T14:13:42;102529.75;;;5.35
24586;BMP280;12743;52.262;6.172;2023-02-28T14:16:14;102507.25;;;5.29
24586;BMP280;12743;52.262;6.172;2023-02-28T14:18:51;102511.09;;;5.65
24586;BMP280;12743;52.262;6.172;2023-02-28T14:21:29;102588.84;;;6.16
24586;BMP280;12743;52.262;6.172;2023-02-28T14:35:43;102580.91;;;6.28
24586;BMP280;12743;52.262;6.172;2023-02-28T14:38:18;102538.75;;;6.14
24586;BMP280;12743;52.262;6.172;2023-02-28T14:40:49;102462.78;;;5.35
24586;BMP280;12743;52.262;6.172;2023-02-28T14:43:22;102340.75;;;4.84
24586;BMP280;12743;52.262;6.172;2023-02-28T14:45:52;102431.44;;;5.09
24586;BMP280;12743;52.262;6.172;2023-02-28T14:48:20;102432.97;;;5.26
24586;BMP280;12743;52.262;6.172;2023-02-28T14:50:53;102448.06;;;5.46
24586;BMP280;12743;52.262;6.172;2023-02-28T14:53:22;102367.84;;;4.83
24586;BMP280;12743;52.262;6.172;2023-02-28T14:55:50;102521.63;;;5.70
24586;BMP280;12743;52.262;6.172;2023-02-28T14:58:33;102460.97;;;5.36
24586;BMP280;12743;52.262;6.172;2023-02-28T15:01:02;102578.03;;;6.56
24586;BMP280;12743;52.262;6.172;2023-02-28T15:03:30;102574.28;;;6.73
24586;BMP280;12743;52.262;6.172;2023-02-28T15:06:20;102446.66;;;5.82
24586;BMP280;12743;52.262;6.172;2023-02-28T15:08:48;102535.09;;;5.88
24586;BMP280;12743;52.262;6.172;2023-02-28T15:11:17;102528.19;;;5.77
24586;BMP280;12743;52.262;6.172;2023-02-28T15:13:53;102584.28;;;6.01
24586;BMP280;12743;52.262;6.172;2023-02-28T15:16:28;102340.84;;;4.34
24586;BMP280;12743;52.262;6.172;2023-02-28T15:18:58;102578.59;;;6.31
24586;BMP280;12743;52.262;6.172;2023-02-28T15:21:31;102534.63;;;5.91
24586;BMP280;12743;52.262;6.172;2023-02-28T15:26:39;102452.34;;;4.97
24586;BMP280;12743;52.262;6.172;2023-02-28T15:29:14;102468.06;;;5.19
24586;BMP280;12743;52.262;6.172;2023-02-28T15:31:48;102523.16;;;5.49
24586;BMP280;12743;52.262;6.172;2023-02-28T15:34:43;102499.44;;;5.29
24586;BMP280;12743;52.262;6.172;2023-02-28T15:40:04;102311.84;;;4.09
24586;BMP280;12743;52.262;6.172;2023-02-28T15:42:31;102456.72;;;4.91
24586;BMP280;12743;52.262;6.172;2023-02-28T15:44:58;102292.47;;;3.83
24586;BMP280;12743;52.262;6.172;2023-02-28T15:47:27;102543.53;;;5.52
24586;BMP280;12743;52.262;6.172;2023-02-28T15:50:06;102448.38;;;4.89
24586;BMP280;12743;52.262;6.172;2023-02-28T15:52:41;102559.66;;;5.49
24586;BMP280;12743;52.262;6.172;2023-02-28T15:55:22;102542.81;;;5.40
24586;BMP280;12743;52.262;6.172;2023-02-28T15:57:53;102374.13;;;4.32
24586;BMP280;12743;52.262;6.172;2023-02-28T16:00:23;102480.38;;;4.90
24586;BMP280;12743;52.262;6.172;2023-02-28T16:02:50;102512.00;;;5.15
24586;BMP280;12743;52.262;6.172;2023-02-28T16:05:30;102555.81;;;5.35
24586;BMP280;12743;52.262;6.172;2023-02-28T16:08:13;102521.28;;;5.06
24586;BMP280;12743;52.262;6.172;2023-02-28T16:10:39;102529.09;;;5.06
24586;BMP280;12743;52.262;6.172;2023-02-28T16:13:08;102537.53;;;5.13
24586;BMP280;12743;52.262;6.172;2023-02-28T16:15:41;102476.13;;;4.67
24586;BMP280;12743;52.262;6.172;2023-02-28T16:18:12;102400.59;;;4.29
24586;BMP280;12743;52.262;6.172;2023-02-28T16:20:39;102452.09;;;4.60
24586;BMP280;12743;52.262;6.172;2023-02-28T16:23:06;102399.28;;;4.15
24586;BMP280;12743;52.262;6.172;2023-02-28T16:25:36;102436.63;;;4.37
24586;BMP280;12743;52.262;6.172;2023-02-28T16:28:04;102531.91;;;5.05
24586;BMP280;12743;52.262;6.172;2023-02-28T16:30:34;102543.13;;;5.05
24586;BMP280;12743;52.262;6.172;2023-02-28T16:33:01;102334.91;;;3.89
24586;BMP280;12743;52.262;6.172;2023-02-28T16:35:28;102397.13;;;4.07
24586;BMP280;12743;52.262;6.172;2023-02-28T16:37:54;102386.13;;;4.05